createdAt,value
2022-11-29T00:01:01.069Z,7.22
2022-11-29T00:03:28.143Z,7.21
2022-11-29T00:05:55.571Z,7.22
2022-11-29T00:08:23.463Z,7.22
2022-11-29T00:10:50.317Z,7.22
2022-11-29T00:13:17.498Z,7.23
2022-11-29T00:15:43.930Z,7.22
2022-11-29T00:18:10.331Z,7.22
2022-11-29T00:20:39.157Z,7.22
2022-11-29T00:23:05.955Z,7.21
2022-11-29T00:25:34.721Z,7.21
2022-11-29T00:28:05.802Z,7.21
2022-11-29T00:30:32.311Z,7.21
2022-11-29T00:32:58.788Z,7.22
2022-11-29T00:35:25.225Z,7.22
2022-11-29T00:37:51.616Z,7.21
2022-11-29T00:40:18.258Z,7.21
2022-11-29T00:42:44.729Z,7.22
2022-11-29T00:45:12.033Z,7.21
2022-11-29T00:47:38.480Z,7.22
2022-11-29T00:50:06.610Z,7.21
2022-11-29T00:52:35.452Z,7.21
2022-11-29T00:55:04.422Z,7.22
2022-11-29T00:57:30.864Z,7.22
2022-11-29T00:59:57.227Z,7.21
2022-11-29T01:02:24.089Z,7.21
2022-11-29T01:04:53.056Z,7.21
2022-11-29T01:07:22.020Z,7.21
2022-11-29T01:09:48.434Z,7.21
2022-11-29T01:12:17.712Z,7.21
2022-11-29T01:14:44.463Z,7.20
2022-11-29T01:17:11.145Z,7.20
2022-11-29T01:19:38.857Z,7.19
2022-11-29T01:22:05.229Z,7.21
2022-11-29T01:24:31.705Z,7.22
2022-11-29T01:26:58.167Z,7.21
2022-11-29T01:29:24.647Z,7.21
2022-11-29T01:31:53.454Z,7.21
2022-11-29T01:34:22.521Z,7.20
2022-11-29T01:36:48.933Z,7.19
2022-11-29T01:39:15.412Z,7.21
2022-11-29T01:41:44.202Z,7.20
2022-11-29T01:44:30.953Z,7.21
2022-11-29T01:46:58.259Z,7.21
2022-11-29T01:49:31.697Z,7.21
2022-11-29T01:52:02.542Z,7.20
2022-11-29T01:54:30.630Z,7.20
2022-11-29T01:57:01.126Z,7.21
2022-11-29T01:59:30.017Z,7.21
2022-11-29T02:02:04.688Z,7.20
2022-11-29T02:04:35.739Z,7.20
2022-11-29T02:07:02.486Z,7.21
2022-11-29T02:09:29.016Z,7.21
2022-11-29T02:12:07.212Z,7.21
2022-11-29T02:14:56.599Z,7.22
2022-11-29T02:17:33.963Z,7.22
2022-11-29T02:20:06.011Z,7.22
2022-11-29T02:22:47.642Z,7.20
2022-11-29T02:25:20.331Z,7.21
2022-11-29T02:28:15.535Z,7.20
2022-11-29T02:31:12.178Z,7.20
2022-11-29T02:33:44.872Z,7.20
2022-11-29T02:36:35.747Z,7.23
2022-11-29T02:39:28.761Z,7.23
2022-11-29T02:42:54.068Z,7.23
2022-11-29T02:46:10.717Z,7.24
2022-11-29T02:48:57.978Z,7.24
2022-11-29T02:51:58.028Z,7.23
2022-11-29T02:54:43.599Z,7.24
2022-11-29T02:57:37.271Z,7.24
2022-11-29T03:00:06.837Z,7.24
2022-11-29T03:02:47.142Z,7.23
2022-11-29T03:05:52.100Z,7.22
2022-11-29T03:08:31.873Z,7.24
2022-11-29T03:11:07.118Z,7.23
2022-11-29T03:13:52.481Z,7.23
2022-11-29T03:16:47.568Z,7.23
2022-11-29T03:19:41.894Z,7.24
2022-11-29T03:22:18.509Z,7.23
2022-11-29T03:25:07.048Z,7.23
2022-11-29T03:27:52.606Z,7.26
2022-11-29T03:30:19.900Z,7.24
2022-11-29T03:33:16.960Z,7.24
2022-11-29T03:36:00.988Z,7.24
2022-11-29T03:38:38.557Z,7.25
2022-11-29T03:41:23.800Z,7.25
2022-11-29T03:44:07.046Z,7.24
2022-11-29T03:46:37.996Z,7.25
2022-11-29T03:49:18.608Z,7.25
2022-11-29T03:52:01.077Z,7.26
2022-11-29T03:54:35.136Z,7.25
2022-11-29T03:57:01.732Z,7.27
2022-11-29T03:59:51.911Z,7.25
2022-11-29T04:02:37.190Z,7.23
2022-11-29T04:05:06.562Z,7.26
2022-11-29T04:08:00.986Z,7.28
2022-11-29T04:10:49.077Z,7.26
2022-11-29T04:13:22.473Z,7.29
2022-11-29T04:15:55.250Z,7.31
2022-11-29T04:18:46.612Z,7.33
2022-11-29T04:21:31.438Z,7.33
2022-11-29T04:24:22.744Z,7.33
2022-11-29T04:26:51.510Z,7.32
2022-11-29T04:29:39.972Z,7.31
2022-11-29T04:32:39.612Z,7.33
2022-11-29T04:35:15.451Z,7.32
2022-11-29T04:38:15.820Z,7.34
2022-11-29T04:41:07.776Z,7.33
2022-11-29T04:43:49.407Z,7.34
2022-11-29T04:46:43.134Z,7.34
2022-11-29T04:49:37.370Z,7.35
2022-11-29T04:52:27.006Z,7.35
2022-11-29T04:55:24.964Z,7.38
2022-11-29T04:58:00.099Z,7.38
2022-11-29T05:00:28.899Z,7.37
2022-11-29T05:03:04.723Z,7.37
2022-11-29T05:05:43.175Z,7.37
2022-11-29T05:08:40.520Z,7.38
2022-11-29T05:11:26.861Z,7.39
2022-11-29T05:14:26.232Z,7.38
2022-11-29T05:17:27.022Z,7.37
2022-11-29T05:20:08.518Z,7.37
2022-11-29T05:22:53.841Z,7.38
2022-11-29T05:25:44.598Z,7.38
2022-11-29T05:28:37.936Z,7.40
2022-11-29T05:31:39.665Z,7.38
2022-11-29T05:34:46.623Z,7.39
2022-11-29T05:37:45.613Z,7.40
2022-11-29T05:40:33.518Z,7.41
2022-11-29T05:43:14.888Z,7.40
2022-11-29T05:45:57.664Z,7.41
2022-11-29T05:48:46.369Z,7.41
2022-11-29T05:51:22.847Z,7.41
2022-11-29T05:54:07.719Z,7.43
2022-11-29T05:56:46.941Z,7.42
2022-11-29T05:59:20.428Z,7.41
2022-11-29T06:01:56.233Z,7.44
2022-11-29T06:04:55.273Z,7.43
2022-11-29T06:07:37.379Z,7.42
2022-11-29T06:10:11.019Z,7.42
2022-11-29T06:12:42.584Z,7.41
2022-11-29T06:15:24.224Z,7.43
2022-11-29T06:18:23.578Z,7.42
2022-11-29T06:21:01.858Z,7.41
2022-11-29T06:23:37.306Z,7.41
2022-11-29T06:26:42.130Z,7.43
2022-11-29T06:29:29.529Z,7.41
2022-11-29T06:32:20.301Z,7.40
2022-11-29T06:35:13.100Z,7.40
2022-11-29T06:37:42.706Z,7.42
2022-11-29T06:40:15.887Z,7.40
2022-11-29T06:42:42.816Z,7.41
2022-11-29T06:45:14.176Z,7.43
2022-11-29T06:47:50.439Z,7.43
2022-11-29T06:50:38.245Z,7.43
2022-11-29T06:53:13.964Z,7.41
2022-11-29T06:56:18.091Z,7.42
2022-11-29T06:59:10.670Z,7.42
2022-11-29T07:01:47.939Z,7.42
2022-11-29T07:04:35.339Z,7.43
2022-11-29T07:07:02.030Z,7.44
2022-11-29T07:09:34.118Z,7.44
2022-11-29T07:12:03.345Z,7.45
2022-11-29T07:14:29.990Z,7.43
2022-11-29T07:17:15.148Z,7.42
2022-11-29T07:20:16.033Z,7.43
2022-11-29T07:22:54.685Z,7.44
2022-11-29T07:25:21.175Z,7.45
2022-11-29T07:28:02.718Z,7.45
2022-11-29T07:30:37.156Z,7.46
2022-11-29T07:33:21.818Z,7.45
2022-11-29T07:36:22.320Z,7.45
2022-11-29T07:38:57.218Z,7.45
2022-11-29T07:41:26.560Z,7.47
2022-11-29T07:44:06.606Z,7.47
2022-11-29T07:46:33.139Z,7.51
2022-11-29T07:48:59.593Z,7.53
2022-11-29T07:51:26.057Z,7.51
2022-11-29T07:53:52.468Z,7.54
2022-11-29T07:56:18.893Z,7.57
2022-11-29T07:58:45.368Z,7.54
2022-11-29T08:01:12.019Z,7.54
2022-11-29T08:03:38.372Z,7.56
2022-11-29T08:06:07.297Z,7.59
2022-11-29T08:08:40.695Z,7.59
2022-11-29T08:11:15.321Z,7.62
2022-11-29T08:13:41.839Z,7.59
2022-11-29T08:16:11.829Z,7.62
2022-11-29T08:18:38.227Z,7.58
2022-11-29T08:21:10.198Z,7.59
2022-11-29T08:23:39.090Z,7.61
2022-11-29T08:26:05.964Z,7.60
2022-11-29T08:28:32.338Z,7.65
2022-11-29T08:31:11.654Z,7.71
2022-11-29T08:33:41.461Z,7.69
2022-11-29T08:36:10.670Z,7.73
2022-11-29T08:38:37.330Z,7.76
2022-11-29T08:41:06.034Z,7.76
2022-11-29T08:43:32.683Z,7.75
2022-11-29T08:45:59.234Z,7.75
2022-11-29T08:48:26.182Z,7.78
2022-11-29T08:50:54.712Z,7.82
2022-11-29T08:53:42.245Z,7.91
2022-11-29T08:59:07.265Z,7.98
2022-11-29T09:01:33.753Z,7.96
2022-11-29T09:04:00.208Z,7.94
2022-11-29T09:06:28.669Z,7.95
2022-11-29T09:08:56.404Z,7.92
2022-11-29T09:11:24.483Z,7.95
2022-11-29T09:13:53.711Z,8.01
2022-11-29T09:16:23.688Z,8.10
2022-11-29T09:18:51.891Z,8.21
2022-11-29T09:21:19.583Z,8.23
2022-11-29T09:23:46.057Z,8.18
2022-11-29T09:26:17.825Z,8.10
2022-11-29T09:28:44.405Z,8.13
2022-11-29T09:31:20.124Z,8.14
2022-11-29T09:33:47.717Z,8.18
2022-11-29T09:36:14.912Z,8.20
2022-11-29T09:38:41.696Z,8.21
2022-11-29T09:41:47.075Z,8.23
2022-11-29T09:44:52.450Z,8.22
2022-11-29T09:47:27.851Z,8.31
2022-11-29T09:49:58.720Z,8.24
2022-11-29T09:52:49.696Z,8.22
2022-11-29T09:55:34.618Z,8.23
2022-11-29T09:58:03.825Z,8.20
2022-11-29T10:00:38.110Z,8.28
2022-11-29T10:03:16.608Z,8.25
2022-11-29T10:05:46.956Z,8.26
2022-11-29T10:08:44.259Z,8.32
2022-11-29T10:11:28.231Z,8.35
2022-11-29T10:14:16.690Z,8.29
2022-11-29T10:17:00.027Z,8.38
2022-11-29T10:19:41.088Z,8.45
2022-11-29T10:22:30.610Z,8.50
2022-11-29T10:25:00.894Z,8.47
2022-11-29T10:27:29.544Z,8.52
2022-11-29T10:29:59.181Z,8.55
2022-11-29T10:32:26.273Z,8.61
2022-11-29T10:34:57.513Z,8.62
2022-11-29T10:37:24.592Z,8.71
2022-11-29T10:39:58.557Z,8.78
2022-11-29T10:42:46.462Z,8.71
2022-11-29T10:45:30.655Z,8.78
2022-11-29T10:48:21.194Z,8.73
2022-11-29T10:50:50.493Z,8.73
2022-11-29T10:53:25.893Z,8.65
2022-11-29T10:56:07.422Z,8.74
2022-11-29T10:58:34.204Z,8.63
2022-11-29T11:01:06.835Z,8.69
2022-11-29T11:03:36.434Z,8.62
2022-11-29T11:06:09.573Z,8.69
2022-11-29T11:08:37.466Z,8.68
2022-11-29T11:11:06.105Z,8.70
2022-11-29T11:13:33.984Z,8.64
2022-11-29T11:16:10.705Z,8.69
2022-11-29T11:18:37.905Z,8.72
2022-11-29T11:21:09.130Z,8.69
2022-11-29T11:23:42.981Z,8.66
2022-11-29T11:26:12.785Z,8.60
2022-11-29T11:28:53.718Z,8.66
2022-11-29T11:31:34.197Z,8.70
2022-11-29T11:34:19.374Z,8.72
2022-11-29T11:36:45.833Z,8.68
2022-11-29T11:39:19.049Z,8.72
2022-11-29T11:42:05.395Z,8.67
2022-11-29T11:44:48.464Z,8.73
2022-11-29T11:47:28.810Z,8.72
2022-11-29T11:50:04.352Z,8.71
2022-11-29T11:52:39.765Z,8.82
2022-11-29T11:55:36.885Z,8.97
2022-11-29T11:58:31.275Z,8.87
2022-11-29T12:01:20.765Z,8.87
2022-11-29T12:04:22.945Z,8.88
2022-11-29T12:06:56.120Z,8.88
2022-11-29T12:09:36.472Z,8.87
2022-11-29T12:12:25.945Z,8.85
2022-11-29T12:15:18.547Z,8.85
2022-11-29T12:17:57.601Z,8.83
2022-11-29T12:20:45.386Z,8.83
2022-11-29T12:23:11.781Z,8.75
2022-11-29T12:25:58.110Z,8.80
2022-11-29T12:28:33.565Z,8.80
2022-11-29T12:31:02.859Z,8.83
2022-11-29T12:33:43.089Z,8.82
2022-11-29T12:36:22.754Z,8.76
2022-11-29T12:39:04.688Z,8.83
2022-11-29T12:41:54.281Z,8.78
2022-11-29T12:44:20.842Z,8.74
2022-11-29T12:47:34.509Z,8.78
2022-11-29T12:50:24.318Z,8.74
2022-11-29T12:53:03.011Z,8.74
2022-11-29T12:55:54.763Z,8.72
2022-11-29T12:58:45.760Z,8.70
2022-11-29T13:01:23.240Z,8.72
2022-11-29T13:03:58.463Z,8.72
2022-11-29T13:07:03.552Z,8.71
2022-11-29T13:09:53.528Z,8.73
2022-11-29T13:12:39.572Z,8.68
2022-11-29T13:15:17.959Z,8.69
2022-11-29T13:17:56.506Z,8.74
2022-11-29T13:20:35.035Z,8.71
2022-11-29T13:23:07.403Z,8.70
2022-11-29T13:25:37.983Z,8.71
2022-11-29T13:28:17.985Z,8.68
2022-11-29T13:30:45.095Z,8.65
2022-11-29T13:33:24.897Z,8.68
2022-11-29T13:36:06.743Z,8.67
2022-11-29T13:38:40.264Z,8.62
2022-11-29T13:41:32.851Z,8.63
2022-11-29T13:44:15.805Z,8.59
2022-11-29T13:47:03.417Z,8.57
2022-11-29T13:49:51.717Z,8.57
2022-11-29T13:52:39.612Z,8.58
2022-11-29T13:55:11.877Z,8.57
2022-11-29T14:00:44.414Z,8.56
2022-11-29T14:03:32.786Z,8.54
2022-11-29T14:06:01.964Z,8.55
2022-11-29T14:08:47.667Z,8.54
2022-11-29T14:11:17.506Z,8.53
2022-11-29T14:14:08.743Z,8.51
2022-11-29T14:16:46.512Z,8.51
2022-11-29T14:19:23.071Z,8.52
2022-11-29T14:21:58.644Z,8.50
2022-11-29T14:24:35.255Z,8.50
2022-11-29T14:27:07.919Z,8.50
2022-11-29T14:29:55.440Z,8.51
2022-11-29T14:32:46.003Z,8.51
2022-11-29T14:35:13.019Z,8.50
2022-11-29T14:38:20.467Z,8.49
2022-11-29T14:41:25.440Z,8.47
2022-11-29T14:44:05.324Z,8.49
2022-11-29T14:46:32.990Z,8.47
2022-11-29T14:49:03.131Z,8.48
2022-11-29T14:51:32.624Z,8.48
2022-11-29T14:54:14.772Z,8.48
2022-11-29T14:56:43.472Z,8.45
2022-11-29T14:59:47.802Z,8.45
2022-11-29T15:02:16.684Z,8.42
2022-11-29T15:04:44.169Z,8.42
2022-11-29T15:07:18.683Z,8.41
2022-11-29T15:09:50.316Z,8.41
2022-11-29T15:12:26.898Z,8.41
2022-11-29T15:15:03.302Z,8.40
2022-11-29T15:17:49.887Z,8.39
2022-11-29T15:20:37.568Z,8.38
2022-11-29T15:23:09.687Z,8.39
2022-11-29T15:25:38.502Z,8.39
2022-11-29T15:28:06.053Z,8.37
2022-11-29T15:30:39.774Z,8.36
2022-11-29T15:33:15.551Z,8.37
2022-11-29T15:35:51.286Z,8.37
2022-11-29T15:38:21.780Z,8.38
2022-11-29T15:40:53.964Z,8.37
2022-11-29T15:43:25.623Z,8.36
2022-11-29T15:45:59.785Z,8.35
2022-11-29T15:48:31.051Z,8.37
2022-11-29T15:51:00.588Z,8.35
2022-11-29T15:53:44.827Z,8.33
2022-11-29T15:56:17.861Z,8.33
2022-11-29T15:58:45.799Z,8.32
2022-11-29T16:01:19.549Z,8.30
2022-11-29T16:03:47.578Z,8.32
2022-11-29T16:06:23.890Z,8.31
2022-11-29T16:08:51.981Z,8.30
2022-11-29T16:11:22.765Z,8.30
2022-11-29T16:14:15.050Z,8.27
2022-11-29T16:16:46.368Z,8.28
2022-11-29T16:19:28.356Z,8.29
2022-11-29T16:22:02.912Z,8.28
2022-11-29T16:24:31.940Z,8.27
2022-11-29T16:27:00.727Z,8.27
2022-11-29T16:29:30.601Z,8.26
2022-11-29T16:31:57.749Z,8.25
2022-11-29T16:34:28.022Z,8.26
2022-11-29T16:37:14.534Z,8.27
2022-11-29T16:39:45.714Z,8.25
2022-11-29T16:42:24.972Z,8.26
2022-11-29T16:45:02.206Z,8.26
2022-11-29T16:47:30.648Z,8.25
2022-11-29T16:50:22.481Z,8.26
2022-11-29T16:52:54.833Z,8.24
2022-11-29T16:55:27.573Z,8.24
2022-11-29T16:57:54.084Z,8.24
2022-11-29T17:00:31.687Z,8.24
2022-11-29T17:02:59.115Z,8.23
2022-11-29T17:05:27.828Z,8.23
2022-11-29T17:07:54.655Z,8.23
2022-11-29T17:10:25.462Z,8.22
2022-11-29T17:12:52.053Z,8.20
2022-11-29T17:15:18.504Z,8.18
2022-11-29T17:17:45.100Z,8.17
2022-11-29T17:20:15.408Z,8.15
2022-11-29T17:22:41.777Z,8.15
2022-11-29T17:25:12.020Z,8.11
2022-11-29T17:27:38.384Z,8.10
2022-11-29T17:30:07.075Z,8.10
2022-11-29T17:32:35.644Z,8.11
2022-11-29T17:35:02.010Z,8.12
2022-11-29T17:37:30.145Z,8.12
2022-11-29T17:39:59.130Z,8.17
2022-11-29T17:42:30.341Z,8.14
2022-11-29T17:44:56.718Z,8.13
2022-11-29T17:47:23.132Z,8.14
2022-11-29T17:49:52.055Z,8.12
2022-11-29T17:52:18.428Z,8.13
2022-11-29T17:54:45.004Z,8.12
2022-11-29T17:57:11.445Z,8.10
2022-11-29T17:59:40.427Z,8.09
2022-11-29T18:02:07.053Z,8.11
2022-11-29T18:04:33.504Z,8.11
2022-11-29T18:07:01.426Z,8.09
2022-11-29T18:09:32.483Z,8.11
2022-11-29T18:11:58.866Z,8.10
2022-11-29T18:14:28.155Z,8.09
2022-11-29T18:16:56.991Z,8.07
2022-11-29T18:19:25.790Z,8.09
2022-11-29T18:21:54.595Z,8.08
2022-11-29T18:24:21.141Z,8.08
2022-11-29T18:26:49.800Z,8.07
2022-11-29T18:29:16.869Z,8.08
2022-11-29T18:31:45.251Z,8.07
2022-11-29T18:34:13.706Z,8.07
2022-11-29T18:36:46.251Z,8.06
2022-11-29T18:39:15.401Z,8.06
2022-11-29T18:41:44.865Z,8.04
2022-11-29T18:44:13.753Z,8.04
2022-11-29T18:46:42.997Z,8.02
2022-11-29T18:49:12.012Z,8.01
2022-11-29T18:51:39.658Z,8.00
2022-11-29T18:54:06.521Z,7.98
2022-11-29T18:56:34.604Z,7.97
2022-11-29T18:59:06.579Z,7.94
2022-11-29T19:01:35.295Z,7.90
2022-11-29T19:04:02.175Z,7.90
2022-11-29T19:06:39.871Z,7.87
2022-11-29T19:09:13.333Z,7.87
2022-11-29T19:11:42.305Z,7.83
2022-11-29T19:14:13.960Z,7.83
2022-11-29T19:16:43.223Z,7.85
2022-11-29T19:19:09.934Z,7.84
2022-11-29T19:21:36.692Z,7.84
2022-11-29T19:24:05.603Z,7.83
2022-11-29T19:26:33.558Z,7.85
2022-11-29T19:29:01.404Z,7.81
2022-11-29T19:31:28.850Z,7.75
2022-11-29T19:33:56.428Z,7.72
2022-11-29T19:36:25.715Z,7.73
2022-11-29T19:38:54.068Z,7.70
2022-11-29T19:41:23.540Z,7.64
2022-11-29T19:43:50.113Z,7.59
2022-11-29T19:46:22.692Z,7.53
2022-11-29T19:48:49.409Z,7.49
2022-11-29T19:51:18.606Z,7.45
2022-11-29T19:53:46.512Z,7.36
2022-11-29T19:56:16.661Z,7.32
2022-11-29T19:58:43.993Z,7.23
2022-11-29T20:01:14.967Z,7.19
2022-11-29T20:03:45.190Z,7.14
2022-11-29T20:06:13.584Z,7.10
2022-11-29T20:08:40.489Z,7.07
2022-11-29T20:11:09.756Z,7.08
2022-11-29T20:13:37.754Z,7.04
2022-11-29T20:16:05.866Z,7.03
2022-11-29T20:18:33.604Z,7.00
2022-11-29T20:21:11.850Z,6.99
2022-11-29T20:23:39.356Z,7.03
2022-11-29T20:26:08.043Z,7.05
2022-11-29T20:28:38.233Z,7.05
2022-11-29T20:31:12.819Z,7.02
2022-11-29T20:33:41.381Z,6.99
2022-11-29T20:36:31.995Z,6.96
2022-11-29T20:39:07.386Z,6.96
2022-11-29T20:41:43.133Z,6.89
2022-11-29T20:44:19.637Z,6.87
2022-11-29T20:46:48.741Z,6.84
2022-11-29T20:49:17.242Z,6.79
2022-11-29T20:51:54.585Z,6.73
2022-11-29T20:54:23.726Z,6.70
2022-11-29T20:56:50.211Z,6.65
2022-11-29T20:59:17.917Z,6.58
2022-11-29T21:01:46.482Z,6.57
2022-11-29T21:04:18.880Z,6.51
2022-11-29T21:06:48.435Z,6.52
2022-11-29T21:09:14.820Z,6.47
2022-11-29T21:11:43.849Z,6.45
2022-11-29T21:14:10.624Z,6.45
2022-11-29T21:16:37.185Z,6.39
2022-11-29T21:19:03.997Z,6.42
2022-11-29T21:21:42.005Z,6.41
2022-11-29T21:24:26.306Z,6.45
2022-11-29T21:26:53.066Z,6.61
2022-11-29T21:29:21.730Z,6.63
2022-11-29T21:31:52.235Z,6.63
2022-11-29T21:34:21.473Z,6.77
2022-11-29T21:36:56.841Z,6.83
2022-11-29T21:39:33.799Z,6.75
2022-11-29T21:42:00.426Z,6.89
2022-11-29T21:44:26.794Z,6.83
2022-11-29T21:46:54.193Z,6.88
2022-11-29T21:49:20.608Z,6.89
2022-11-29T21:51:47.025Z,6.87
2022-11-29T21:54:13.509Z,6.88
2022-11-29T21:56:39.987Z,6.90
2022-11-29T21:59:06.344Z,6.91
2022-11-29T22:01:35.341Z,6.91
2022-11-29T22:04:01.911Z,6.93
2022-11-29T22:06:29.434Z,6.91
2022-11-29T22:09:00.223Z,6.95
2022-11-29T22:11:34.072Z,6.92
2022-11-29T22:14:15.555Z,6.91
2022-11-29T22:16:46.125Z,6.92
2022-11-29T22:19:16.554Z,6.92
2022-11-29T22:21:45.134Z,6.94
2022-11-29T22:24:13.924Z,6.94
2022-11-29T22:26:41.698Z,6.92
2022-11-29T22:29:08.159Z,6.98
2022-11-29T22:31:36.015Z,6.98
2022-11-29T22:34:02.932Z,6.98
2022-11-29T22:36:31.743Z,6.99
2022-11-29T22:38:58.543Z,7.02
2022-11-29T22:41:25.750Z,7.03
2022-11-29T22:43:52.432Z,7.03
2022-11-29T22:46:26.288Z,7.03
2022-11-29T22:48:55.473Z,7.02
2022-11-29T22:51:23.187Z,7.03
2022-11-29T22:54:03.557Z,7.00
2022-11-29T22:56:32.610Z,7.05
2022-11-29T22:58:59.225Z,7.08
2022-11-29T23:01:30.047Z,7.09
2022-11-29T23:03:58.493Z,7.11
2022-11-29T23:06:30.213Z,7.11
2022-11-29T23:09:03.907Z,7.13
2022-11-29T23:11:30.947Z,7.15
2022-11-29T23:13:57.672Z,7.15
2022-11-29T23:16:26.996Z,7.18
2022-11-29T23:18:55.171Z,7.16
2022-11-29T23:21:31.870Z,7.13
2022-11-29T23:24:01.529Z,7.13
2022-11-29T23:26:33.948Z,7.13
2022-11-29T23:29:00.336Z,7.15
2022-11-29T23:31:31.629Z,7.13
2022-11-29T23:33:58.321Z,7.13
2022-11-29T23:36:27.010Z,7.12
2022-11-29T23:38:53.380Z,7.14
2022-11-29T23:41:19.855Z,7.15
2022-11-29T23:43:46.267Z,7.15
2022-11-29T23:46:15.617Z,7.13
2022-11-29T23:48:42.661Z,7.14
2022-11-29T23:51:09.360Z,7.12
2022-11-29T23:53:36.420Z,7.15
2022-11-29T23:56:08.134Z,7.15
2022-11-29T23:58:37.943Z,7.17
